CheckWX is a tool to help pilots better visualize weather data.  It is not intended as a substitute for an official pre-flight weather briefing.

03:21:22 UTC

DNJO METAR
Yakubu Gowon Airport
Jos, Nigeria
Current

8 hours ago

DNJO 221900Z 08005KT CAVOK 22/18 Q1019
Observed
Sep-22 @ 19:00 UTC
Wind
  • 080° at 5 KTS
Visibility
10,000+ meters
Flight Rules
VFR
Cloud Levels
  • Clear skies
Temperature
22°C / 72°F
Dewpoint
18°C / 64°F
Humidity
78%
Altimeter
30.09" Hg
Pressure
1018.92 hPa
Previous

11 hours ago

DNJO 221600Z 09011KT 9999 FEW008 27/14 Q1017
Observed
Sep-22 @ 16:00 UTC
Wind
  • 090° at 11 KTS
Visibility
10,000+ meters
Flight Rules
VFR
Cloud Levels
  • Few at 800' AGL
Temperature
27°C / 81°F
Dewpoint
14°C / 57°F
Heat Index
27°C / 81°F
Humidity
45%
Altimeter
30.03" Hg
Pressure
1016.92 hPa
Previous

16 hours ago

DNJO 221100Z 09014KT 9999 FEW008 29/16 Q1019
Observed
Sep-22 @ 11:00 UTC
Wind
  • 090° at 14 KTS
Visibility
10,000+ meters
Flight Rules
VFR
Cloud Levels
  • Few at 800' AGL
Temperature
29°C / 84°F
Dewpoint
16°C / 61°F
Heat Index
29°C / 84°F
Humidity
45%
Altimeter
30.09" Hg
Pressure
1018.92 hPa